Time;durP1;ratioP1;P1;durP2;ratioP2;P2;SDS_P1;SDS_P2;PMS_P1;PMS_P2;Temp;Humidity;BMP_temperature;BMP_pressure;BME280_temperature;BME280_humidity;BME280_pressure;Samples;Min_cycle;Max_cycle;Signal;HPM_P1;HPM_P2
2021/04/19 00:00:16;;;;;;;10.48;8.68;;;9.70;84.60;;;;;;4996087;28;20398;-77
2021/04/19 00:02:41;;;;;;;10.70;8.73;;;9.60;84.80;;;;;;4973477;28;20038;-77
2021/04/19 00:05:09;;;;;;;13.55;9.32;;;9.50;85.50;;;;;;4975936;28;20136;-77
2021/04/19 00:07:35;;;;;;;9.73;8.32;;;9.50;83.30;;;;;;5000106;28;20045;-77
2021/04/19 00:10:00;;;;;;;11.18;8.65;;;9.40;83.30;;;;;;4977540;28;20078;-77
2021/04/19 00:12:26;;;;;;;11.52;9.40;;;9.30;85.80;;;;;;4985541;28;20058;-77
2021/04/19 00:14:51;;;;;;;9.07;7.93;;;9.30;86.20;;;;;;4995379;28;20502;-77
2021/04/19 00:17:17;;;;;;;11.18;10.02;;;9.40;85.10;;;;;;4980736;28;20530;-77
2021/04/19 00:19:43;;;;;;;10.60;9.20;;;9.50;84.00;;;;;;5007052;28;20413;-77
2021/04/19 00:22:08;;;;;;;13.63;9.20;;;9.50;83.50;;;;;;5003580;28;20109;-77
2021/04/19 00:24:34;;;;;;;11.90;8.40;;;9.40;83.70;;;;;;4988351;28;20402;-77
2021/04/19 00:26:59;;;;;;;16.65;10.38;;;9.40;83.30;;;;;;4984403;28;20486;-77
2021/04/19 00:29:25;;;;;;;12.80;9.02;;;9.30;83.10;;;;;;4972936;28;20038;-77
2021/04/19 00:31:50;;;;;;;14.38;9.40;;;9.30;82.80;;;;;;5001133;28;20026;-77
2021/04/19 00:34:16;;;;;;;12.80;10.25;;;9.20;83.80;;;;;;4996880;28;20137;-77
2021/04/19 00:36:41;;;;;;;9.73;8.57;;;9.10;84.20;;;;;;4991250;28;20034;-77
2021/04/19 00:39:07;;;;;;;11.23;9.52;;;9.10;84.40;;;;;;4982704;28;20311;-78
2021/04/19 00:41:32;;;;;;;15.52;9.63;;;9.00;85.70;;;;;;5006718;28;20449;-77
2021/04/19 00:43:58;;;;;;;10.38;9.27;;;8.90;85.70;;;;;;4970482;28;20485;-77
2021/04/19 00:46:24;;;;;;;17.23;10.88;;;8.90;85.80;;;;;;4984937;28;20022;-77
2021/04/19 00:48:49;;;;;;;16.63;10.32;;;8.90;86.50;;;;;;4984632;28;20622;-77
2021/04/19 00:51:15;;;;;;;14.85;10.48;;;9.00;85.10;;;;;;4976559;28;20038;-76
2021/04/19 00:53:40;;;;;;;13.73;10.70;;;9.00;85.00;;;;;;4974295;28;20030;-77
2021/04/19 00:56:08;;;;;;;8.10;6.20;;;9.10;83.80;;;;;;4980440;28;20034;-77
2021/04/19 00:58:35;;;;;;;9.90;8.18;;;9.30;82.50;;;;;;4973641;28;20095;-77
2021/04/19 01:01:00;;;;;;;9.63;8.48;;;9.30;82.10;;;;;;4977672;28;20088;-77
2021/04/19 01:03:26;;;;;;;13.57;10.77;;;9.20;82.40;;;;;;4988733;28;20504;-77
2021/04/19 01:05:51;;;;;;;12.68;9.85;;;9.10;83.20;;;;;;5010195;28;20589;-77
2021/04/19 01:08:17;;;;;;;12.52;9.93;;;8.90;84.80;;;;;;4985101;28;20089;-77
2021/04/19 01:10:42;;;;;;;15.88;10.93;;;9.00;84.00;;;;;;5001125;28;20057;-76
2021/04/19 01:13:08;;;;;;;14.57;10.13;;;9.10;83.20;;;;;;4996460;28;20088;-77
2021/04/19 01:15:34;;;;;;;15.45;10.52;;;9.10;83.20;;;;;;4983899;28;20088;-77
2021/04/19 01:17:59;;;;;;;13.70;11.20;;;9.00;83.50;;;;;;4969465;28;20038;-77
2021/04/19 01:20:29;;;;;;;12.77;10.23;;;9.00;84.50;;;;;;4986404;28;20040;-78
2021/04/19 01:22:55;;;;;;;15.52;10.70;;;8.90;84.60;;;;;;4997880;28;20525;-77
2021/04/19 01:25:25;;;;;;;13.57;10.40;;;8.90;85.40;;;;;;4986981;28;20062;-78
2021/04/19 01:27:51;;;;;;;11.52;9.65;;;9.00;84.90;;;;;;4998526;28;20087;-78
2021/04/19 01:30:17;;;;;;;12.73;10.40;;;8.90;86.50;;;;;;4996408;28;20045;-77
2021/04/19 01:32:43;;;;;;;16.08;11.43;;;8.80;86.80;;;;;;4991758;28;20033;-78
2021/04/19 01:35:09;;;;;;;12.52;11.07;;;8.80;87.60;;;;;;4979395;28;20050;-78
2021/04/19 01:37:35;;;;;;;14.05;11.02;;;8.80;85.60;;;;;;4999957;28;20494;-78
2021/04/19 01:40:00;;;;;;;14.60;11.68;;;8.80;87.20;;;;;;5009099;28;20044;-77
2021/04/19 01:42:26;;;;;;;14.15;10.95;;;8.80;87.00;;;;;;4988230;28;20160;-78
2021/04/19 01:44:51;;;;;;;14.10;10.40;;;8.80;89.30;;;;;;4988100;28;20507;-78
2021/04/19 01:47:17;;;;;;;12.07;9.95;;;8.90;88.60;;;;;;4997475;28;20026;-78
2021/04/19 01:49:43;;;;;;;15.75;12.80;;;8.90;88.80;;;;;;4992559;28;20037;-78
2021/04/19 01:52:08;;;;;;;13.18;11.75;;;8.90;90.10;;;;;;4985672;28;20038;-78
2021/04/19 01:54:34;;;;;;;12.52;10.52;;;8.90;89.60;;;;;;4996011;28;20022;-78
2021/04/19 01:56:59;;;;;;;14.98;12.18;;;9.00;87.10;;;;;;4984976;28;20370;-78
2021/04/19 01:59:25;;;;;;;16.15;13.07;;;9.00;87.80;;;;;;4982709;28;20504;-78
2021/04/19 02:02:09;;;;;;;18.33;13.15;;;9.00;89.40;;;;;;5002748;28;20049;-78
2021/04/19 02:04:49;;;;;;;19.60;14.20;;;9.10;87.10;;;;;;5003853;28;20026;-76
2021/04/19 02:07:29;;;;;;;17.98;14.30;;;9.00;89.00;;;;;;4983659;28;20022;-76
2021/04/19 02:10:03;;;;;;;20.30;14.35;;;9.00;88.60;;;;;;5006770;28;20405;-76
2021/04/19 02:12:34;;;;;;;21.75;16.55;;;9.00;88.10;;;;;;4978232;28;20023;-76
2021/04/19 02:15:05;;;;;;;20.38;15.00;;;9.10;87.30;;;;;;4994369;28;20037;-76
2021/04/19 02:17:48;;;;;;;19.10;15.00;;;9.10;87.10;;;;;;4984796;28;20084;-76
2021/04/19 02:20:30;;;;;;;20.55;16.35;;;9.10;86.50;;;;;;4983305;28;20449;-76
2021/04/19 02:22:58;;;;;;;21.73;17.13;;;9.10;85.50;;;;;;4983292;28;20036;-77
2021/04/19 02:25:40;;;;;;;8.65;7.05;;;9.10;84.60;;;;;;4969257;28;20863;-76
2021/04/19 02:28:18;;;;;;;15.50;11.98;;;9.20;83.60;;;;;;4983844;28;20479;-77
2021/04/19 02:30:46;;;;;;;19.83;16.17;;;9.20;82.70;;;;;;4983292;28;20528;-77
2021/04/19 02:33:14;;;;;;;21.92;15.05;;;9.10;84.90;;;;;;4996022;28;20046;-76
2021/04/19 02:35:40;;;;;;;17.15;13.57;;;9.10;85.10;;;;;;4972349;28;20037;-77
2021/04/19 02:38:05;;;;;;;20.02;16.42;;;9.10;83.90;;;;;;4978059;28;20034;-76
2021/04/19 02:40:33;;;;;;;22.45;16.55;;;9.00;85.20;;;;;;4970512;28;20030;-77
2021/04/19 02:42:58;;;;;;;15.07;11.05;;;9.00;86.80;;;;;;4997644;28;20509;-77
2021/04/19 02:45:24;;;;;;;19.98;15.75;;;9.00;85.10;;;;;;4987517;28;20109;-77
2021/04/19 02:47:49;;;;;;;22.70;17.50;;;8.90;86.60;;;;;;4966506;28;20053;-77
2021/04/19 02:50:17;;;;;;;22.27;17.08;;;8.90;87.90;;;;;;4994492;28;20091;-77
2021/04/19 02:52:44;;;;;;;18.95;15.68;;;8.90;88.50;;;;;;4970745;28;20041;-77
2021/04/19 02:55:11;;;;;;;21.73;18.42;;;8.90;89.00;;;;;;4981509;28;20050;-77
2021/04/19 02:57:48;;;;;;;25.85;20.52;;;8.90;89.00;;;;;;4992347;28;20033;-76
2021/04/19 03:00:19;;;;;;;24.25;18.75;;;8.90;88.30;;;;;;4986005;28;20035;-77
2021/04/19 03:02:44;;;;;;;29.15;20.92;;;8.90;87.50;;;;;;4999938;28;20069;-76
2021/04/19 03:05:12;;;;;;;28.75;20.63;;;8.90;88.90;;;;;;4992594;28;20039;-76
2021/04/19 03:07:40;;;;;;;26.05;21.55;;;8.90;89.30;;;;;;4983777;28;20037;-76
2021/04/19 03:10:13;;;;;;;20.48;14.77;;;8.90;90.00;;;;;;4965367;28;20041;-77
2021/04/19 03:12:41;;;;;;;29.60;21.23;;;8.90;87.10;;;;;;4983147;28;20234;-76
2021/04/19 03:15:08;;;;;;;32.22;22.38;;;9.00;87.90;;;;;;4999309;28;20026;-76
2021/04/19 03:17:33;;;;;;;29.63;23.15;;;8.90;88.90;;;;;;4971117;28;20038;-76
2021/04/19 03:20:04;;;;;;;23.92;18.20;;;8.90;89.30;;;;;;4971771;28;20053;-77
2021/04/19 03:22:30;;;;;;;28.10;21.88;;;8.90;87.10;;;;;;4975355;28;20034;-77
2021/04/19 03:24:55;;;;;;;25.48;21.67;;;9.00;86.80;;;;;;4965402;28;20515;-77
2021/04/19 03:27:22;;;;;;;30.45;23.50;;;9.00;86.80;;;;;;5004877;28;20037;-76
2021/04/19 03:29:47;;;;;;;26.48;20.73;;;8.90;87.00;;;;;;4989700;28;20053;-76
2021/04/19 03:32:17;;;;;;;27.50;21.10;;;8.90;87.70;;;;;;4983333;28;20425;-76
2021/04/19 03:34:43;;;;;;;31.67;23.63;;;8.90;87.20;;;;;;4985353;28;20025;-77
2021/04/19 03:37:13;;;;;;;32.63;24.58;;;8.90;86.40;;;;;;4971476;28;20064;-76
2021/04/19 03:39:38;;;;;;;33.00;25.45;;;8.90;86.40;;;;;;4975535;28;20026;-77
2021/04/19 03:42:04;;;;;;;34.30;25.92;;;8.90;87.00;;;;;;4987922;28;20399;-77
2021/04/19 03:44:31;;;;;;;35.30;25.27;;;8.80;88.50;;;;;;4976061;28;20551;-77
2021/04/19 03:46:57;;;;;;;31.10;24.40;;;8.90;89.00;;;;;;4974804;28;20033;-76
2021/04/19 03:49:26;;;;;;;29.15;23.92;;;8.90;87.10;;;;;;4985576;28;20485;-77
2021/04/19 03:51:56;;;;;;;29.50;23.15;;;8.90;86.90;;;;;;4968756;28;20034;-76
2021/04/19 03:54:23;;;;;;;35.90;28.27;;;8.90;86.30;;;;;;4974666;28;20441;-76
2021/04/19 03:56:49;;;;;;;36.88;27.52;;;8.90;86.70;;;;;;4973973;28;20034;-76
2021/04/19 03:59:15;;;;;;;38.53;27.40;;;8.90;86.40;;;;;;4989361;28;20108;-76
2021/04/19 04:01:41;;;;;;;40.90;28.00;;;8.90;86.20;;;;;;4981577;28;20569;-77
2021/04/19 04:04:06;;;;;;;42.78;29.77;;;8.80;86.80;;;;;;4992623;28;20133;-76
2021/04/19 04:06:32;;;;;;;40.13;29.50;;;8.80;87.00;;;;;;4989647;28;20458;-77
2021/04/19 04:08:58;;;;;;;47.88;31.25;;;8.80;87.50;;;;;;4993439;28;20077;-77
2021/04/19 04:11:23;;;;;;;55.00;31.33;;;8.80;86.80;;;;;;5003516;28;20501;-77
2021/04/19 04:13:49;;;;;;;53.13;28.70;;;8.80;87.00;;;;;;4986846;28;20033;-77
2021/04/19 04:16:14;;;;;;;61.63;32.60;;;8.80;87.70;;;;;;4988090;28;20506;-77
2021/04/19 04:18:40;;;;;;;49.20;31.13;;;8.80;87.30;;;;;;5014476;28;20036;-78
2021/04/19 04:21:06;;;;;;;31.05;22.33;;;8.80;87.80;;;;;;5004104;28;20034;-77
2021/04/19 04:23:31;;;;;;;58.38;30.95;;;8.80;88.30;;;;;;4990886;28;20027;-77
2021/04/19 04:25:57;;;;;;;51.67;31.58;;;8.80;87.20;;;;;;4975517;28;20029;-77
2021/04/19 04:28:22;;;;;;;46.85;29.73;;;8.80;89.60;;;;;;5006856;28;20029;-78
2021/04/19 04:30:48;;;;;;;53.58;33.47;;;8.90;87.60;;;;;;5000661;28;20712;-77
2021/04/19 04:33:13;;;;;;;38.42;27.35;;;8.90;89.50;;;;;;4987030;28;20517;-77
2021/04/19 04:35:39;;;;;;;43.15;32.47;;;8.80;88.70;;;;;;4992232;28;20037;-77
2021/04/19 04:38:05;;;;;;;43.15;32.20;;;8.80;88.30;;;;;;5000963;28;20045;-77
2021/04/19 04:40:30;;;;;;;44.13;31.35;;;8.90;88.50;;;;;;4978892;28;20038;-77
2021/04/19 04:43:21;;;;;;;48.83;33.88;;;8.90;87.80;;;;;;4991807;28;20460;-77
2021/04/19 04:45:47;;;;;;;21.08;14.93;;;8.80;88.80;;;;;;4988271;28;20038;-76
2021/04/19 04:48:24;;;;;;;24.55;17.27;;;8.90;86.40;;;;;;5001656;28;20515;-77
2021/04/19 04:50:54;;;;;;;17.35;13.52;;;8.90;86.80;;;;;;4977666;28;20045;-75
2021/04/19 04:53:25;;;;;;;16.58;13.10;;;8.80;86.60;;;;;;4986543;28;20490;-75
2021/04/19 04:55:51;;;;;;;36.97;27.77;;;8.90;86.20;;;;;;4985540;28;20030;-75
2021/04/19 04:58:16;;;;;;;23.23;18.42;;;8.90;85.30;;;;;;4990116;28;20441;-75
2021/04/19 05:00:44;;;;;;;23.20;18.83;;;9.00;84.70;;;;;;4978025;28;20665;-75
2021/04/19 05:03:10;;;;;;;28.58;22.10;;;8.90;84.90;;;;;;4982880;28;20031;-75
2021/04/19 05:05:35;;;;;;;28.60;22.95;;;9.00;84.80;;;;;;4979991;28;20508;-76
2021/04/19 05:08:01;;;;;;;36.03;27.20;;;9.00;85.70;;;;;;4977007;28;20034;-75
2021/04/19 05:10:26;;;;;;;27.27;18.95;;;9.00;86.00;;;;;;4985346;28;20071;-76
2021/04/19 05:12:52;;;;;;;48.13;27.48;;;9.00;87.00;;;;;;4973403;28;20038;-75
2021/04/19 05:15:17;;;;;;;26.45;20.98;;;9.00;85.60;;;;;;4988626;28;20132;-75
2021/04/19 05:17:43;;;;;;;35.05;27.60;;;9.00;86.60;;;;;;4977291;28;20033;-76
2021/04/19 05:20:10;;;;;;;33.38;25.83;;;9.00;87.10;;;;;;4972381;28;20038;-75
2021/04/19 05:22:35;;;;;;;27.08;20.63;;;9.00;87.20;;;;;;4990589;28;20033;-76
2021/04/19 05:25:04;;;;;;;18.73;14.30;;;9.20;86.90;;;;;;4988864;28;20084;-76
2021/04/19 05:27:30;;;;;;;20.23;16.55;;;9.20;86.10;;;;;;5000445;28;20512;-75
2021/04/19 05:29:56;;;;;;;26.55;21.38;;;9.20;85.70;;;;;;4987423;28;20037;-76
2021/04/19 05:32:22;;;;;;;23.25;18.40;;;9.20;87.20;;;;;;4999666;28;20034;-76
2021/04/19 05:34:48;;;;;;;24.27;19.60;;;9.30;89.20;;;;;;4974602;28;20022;-75
2021/04/19 05:37:14;;;;;;;35.45;25.95;;;9.30;87.60;;;;;;4987853;28;20491;-76
2021/04/19 05:39:40;;;;;;;37.88;27.23;;;9.30;86.50;;;;;;4977531;28;20148;-76
2021/04/19 05:42:07;;;;;;;34.45;26.67;;;9.30;86.10;;;;;;4965196;28;20441;-75
2021/04/19 05:44:33;;;;;;;32.17;24.20;;;9.30;86.80;;;;;;4978944;28;20153;-75
2021/04/19 05:46:59;;;;;;;38.92;28.33;;;9.30;88.40;;;;;;4976170;28;20037;-76
2021/04/19 05:49:24;;;;;;;42.53;29.75;;;9.40;89.70;;;;;;4991463;28;20026;-76
2021/04/19 05:51:50;;;;;;;33.05;24.48;;;9.40;87.10;;;;;;4970411;28;20035;-76
2021/04/19 05:54:16;;;;;;;45.67;30.25;;;9.50;86.60;;;;;;4992737;28;20038;-76
2021/04/19 05:56:59;;;;;;;30.95;24.88;;;9.50;85.80;;;;;;4986017;28;20029;-75
2021/04/19 05:59:28;;;;;;;21.98;17.52;;;9.50;85.50;;;;;;5002151;28;20030;-76
2021/04/19 06:01:55;;;;;;;32.85;24.08;;;9.60;85.80;;;;;;5005253;28;20034;-75
2021/04/19 06:04:33;;;;;;;37.67;26.83;;;9.60;85.00;;;;;;5002022;28;20038;-76
2021/04/19 06:07:29;;;;;;;31.23;23.38;;;9.60;85.10;;;;;;5004881;28;20113;-76
2021/04/19 06:10:10;;;;;;;31.52;22.80;;;9.60;85.80;;;;;;4978564;28;20498;-76
2021/04/19 06:12:36;;;;;;;29.75;23.48;;;9.60;85.80;;;;;;4978874;28;20064;-76
2021/04/19 06:15:06;;;;;;;34.88;23.98;;;9.60;85.20;;;;;;4966775;28;20449;-76
2021/04/19 06:17:32;;;;;;;27.88;21.45;;;9.60;85.20;;;;;;4991631;28;20042;-75
2021/04/19 06:19:57;;;;;;;28.73;22.38;;;9.60;85.30;;;;;;4993324;28;20029;-75
2021/04/19 06:22:23;;;;;;;33.65;23.98;;;9.60;85.50;;;;;;4980827;28;20126;-76
2021/04/19 06:24:51;;;;;;;23.42;17.20;;;9.60;85.20;;;;;;4984187;28;20086;-76
2021/04/19 06:27:20;;;;;;;21.58;16.98;;;9.60;85.10;;;;;;5019323;28;20046;-75
2021/04/19 06:29:46;;;;;;;17.73;15.00;;;9.60;84.80;;;;;;4971449;28;20387;-76
2021/04/19 06:32:11;;;;;;;21.85;16.98;;;9.70;85.00;;;;;;4970214;28;20025;-77
2021/04/19 06:34:37;;;;;;;23.63;18.90;;;9.70;85.00;;;;;;4990960;28;20033;-76
2021/04/19 06:37:02;;;;;;;27.65;20.33;;;9.70;85.00;;;;;;4977906;28;20124;-76
2021/04/19 06:39:28;;;;;;;26.90;19.20;;;9.70;85.20;;;;;;4986965;28;20518;-75
2021/04/19 06:41:53;;;;;;;30.10;20.25;;;9.80;84.70;;;;;;4976325;28;20022;-76
2021/04/19 06:44:19;;;;;;;30.25;21.60;;;9.70;84.90;;;;;;4973635;28;20490;-76
2021/04/19 06:46:45;;;;;;;33.63;22.45;;;9.80;84.70;;;;;;4988366;28;20033;-76
2021/04/19 06:49:12;;;;;;;31.77;22.63;;;9.80;84.50;;;;;;4973419;28;20069;-75
2021/04/19 06:51:38;;;;;;;29.45;22.38;;;9.80;85.30;;;;;;4987413;28;20063;-77
2021/04/19 06:54:04;;;;;;;36.55;25.88;;;9.80;85.40;;;;;;4974922;28;20069;-76
2021/04/19 06:56:40;;;;;;;35.47;26.52;;;9.90;86.00;;;;;;4973432;28;20117;-76
2021/04/19 06:59:10;;;;;;;30.73;23.65;;;9.90;86.30;;;;;;5007627;28;20029;-75
2021/04/19 07:01:36;;;;;;;37.60;27.63;;;9.90;86.10;;;;;;4974947;28;20037;-77
2021/04/19 07:04:07;;;;;;;35.22;26.23;;;10.00;86.50;;;;;;4973965;28;20041;-77
2021/04/19 07:06:33;;;;;;;36.45;26.05;;;10.10;85.80;;;;;;4992361;28;20046;-76
2021/04/19 07:09:05;;;;;;;27.02;20.20;;;10.10;86.00;;;;;;4970806;28;20048;-76
2021/04/19 07:11:35;;;;;;;32.47;24.38;;;10.20;85.00;;;;;;4987180;28;20500;-77
2021/04/19 07:14:01;;;;;;;40.17;27.05;;;10.30;85.20;;;;;;4975967;28;20523;-76
2021/04/19 07:16:27;;;;;;;35.50;26.60;;;10.40;86.60;;;;;;4992527;28;20030;-76
2021/04/19 07:18:52;;;;;;;35.53;26.50;;;10.50;86.40;;;;;;4986780;28;20463;-76
2021/04/19 07:21:18;;;;;;;27.17;20.20;;;10.60;87.10;;;;;;5005744;28;20076;-76
2021/04/19 07:23:43;;;;;;;30.80;23.88;;;10.70;85.40;;;;;;4994076;28;20034;-76
2021/04/19 07:26:10;;;;;;;29.70;24.25;;;10.80;86.60;;;;;;4987024;28;20114;-76
2021/04/19 07:28:37;;;;;;;27.70;22.05;;;10.90;87.20;;;;;;4990413;28;20033;-76
2021/04/19 07:31:05;;;;;;;22.92;17.85;;;10.90;85.90;;;;;;5004890;28;20391;-76
2021/04/19 07:33:32;;;;;;;27.25;21.80;;;11.00;86.00;;;;;;4992271;28;20064;-76
2021/04/19 07:36:17;;;;;;;26.50;20.63;;;11.20;89.30;;;;;;4974650;28;20045;-76
2021/04/19 07:38:42;;;;;;;23.00;17.50;;;11.30;89.40;;;;;;5009625;28;20037;-76
2021/04/19 07:41:08;;;;;;;20.67;16.83;;;11.40;89.90;;;;;;5013793;28;20508;-75
2021/04/19 07:43:37;;;;;;;19.85;16.50;;;11.40;89.60;;;;;;4991532;28;20030;-75
2021/04/19 07:46:10;;;;;;;19.77;15.80;;;11.50;90.80;;;;;;4995417;28;20037;-76
2021/04/19 07:48:37;;;;;;;17.08;15.07;;;11.50;90.00;;;;;;5010973;28;20393;-75
2021/04/19 07:51:23;;;;;;;18.00;14.85;;;11.50;88.40;;;;;;5005797;28;20151;-76
2021/04/19 07:53:49;;;;;;;18.55;14.45;;;11.60;90.10;;;;;;4998835;28;20025;-75
2021/04/19 07:56:16;;;;;;;19.52;15.77;;;11.60;90.50;;;;;;4991157;28;20048;-75
2021/04/19 07:58:41;;;;;;;15.98;13.63;;;11.60;90.40;;;;;;4975474;28;20038;-75
2021/04/19 08:01:07;;;;;;;16.90;14.63;;;11.60;90.20;;;;;;4994522;28;20537;-75
2021/04/19 08:03:40;;;;;;;18.35;14.68;;;11.70;90.10;;;;;;5006616;28;20045;-76
2021/04/19 08:06:19;;;;;;;21.15;15.00;;;11.70;90.70;;;;;;5007012;28;20045;-76
2021/04/19 08:08:45;;;;;;;18.65;15.43;;;11.80;90.80;;;;;;4990012;28;20038;-75
2021/04/19 08:11:12;;;;;;;16.55;13.43;;;11.90;91.10;;;;;;4979966;28;20485;-76
2021/04/19 08:13:38;;;;;;;15.57;13.00;;;11.90;90.70;;;;;;4991191;28;20060;-75
2021/04/19 08:16:15;;;;;;;18.30;14.18;;;11.90;90.60;;;;;;4977970;28;20057;-76
2021/04/19 08:18:40;;;;;;;16.13;14.00;;;12.00;90.70;;;;;;4993992;28;20485;-76
2021/04/19 08:21:06;;;;;;;16.65;12.77;;;12.00;90.60;;;;;;4995535;28;20030;-76
2021/04/19 08:23:39;;;;;;;14.82;12.57;;;12.10;91.10;;;;;;5009160;28;20524;-76
2021/04/19 08:26:04;;;;;;;16.83;12.50;;;12.10;90.90;;;;;;4989463;28;20041;-76
2021/04/19 08:28:32;;;;;;;14.02;11.52;;;12.10;91.10;;;;;;4992392;28;20084;-77
2021/04/19 08:31:00;;;;;;;12.80;11.38;;;12.20;91.30;;;;;;4988460;28;20413;-76
2021/04/19 08:33:26;;;;;;;13.88;10.88;;;12.30;90.90;;;;;;4975456;28;20565;-75
2021/04/19 08:35:52;;;;;;;10.00;8.75;;;12.50;91.30;;;;;;4998238;28;20029;-76
2021/04/19 08:38:21;;;;;;;8.57;7.43;;;12.70;90.90;;;;;;4995761;28;20042;-76
2021/04/19 08:40:47;;;;;;;10.55;7.60;;;12.80;87.50;;;;;;4992311;28;20041;-75
2021/04/19 08:43:22;;;;;;;8.25;5.68;;;12.90;90.30;;;;;;5001924;28;20104;-75
2021/04/19 08:45:48;;;;;;;7.07;5.63;;;12.90;89.20;;;;;;5006615;28;20120;-75
2021/04/19 08:48:13;;;;;;;6.07;5.47;;;13.40;88.70;;;;;;4975121;28;20113;-76
2021/04/19 08:50:40;;;;;;;8.45;6.50;;;13.80;91.10;;;;;;4991828;28;20033;-76
2021/04/19 08:53:13;;;;;;;6.15;4.88;;;13.90;87.30;;;;;;4992562;28;20036;-75
2021/04/19 08:55:41;;;;;;;6.53;5.65;;;13.80;87.80;;;;;;4990340;28;20056;-75
2021/04/19 08:58:10;;;;;;;5.60;4.93;;;14.40;91.80;;;;;;4972046;28;20042;-76
2021/04/19 09:00:40;;;;;;;6.43;5.00;;;14.70;88.20;;;;;;4984329;28;20030;-76
2021/04/19 09:03:06;;;;;;;4.25;3.85;;;14.60;89.80;;;;;;5003660;28;20401;-75
2021/04/19 09:05:32;;;;;;;5.68;4.80;;;14.80;85.60;;;;;;4974767;28;20052;-75
2021/04/19 09:08:08;;;;;;;4.65;3.80;;;15.10;91.00;;;;;;4994339;28;20493;-76
2021/04/19 09:10:55;;;;;;;6.57;5.45;;;15.50;87.20;;;;;;4971999;28;20038;-75
2021/04/19 09:13:24;;;;;;;5.63;4.28;;;15.90;90.10;;;;;;5006111;28;20026;-75
2021/04/19 09:15:52;;;;;;;5.22;4.60;;;16.30;92.10;;;;;;5008820;28;20030;-76
2021/04/19 09:18:19;;;;;;;4.95;4.30;;;16.50;91.00;;;;;;4976046;28;20409;-75
2021/04/19 09:20:54;;;;;;;4.63;3.95;;;16.80;91.80;;;;;;4987354;28;20030;-75
2021/04/19 09:23:27;;;;;;;6.65;4.15;;;16.90;90.40;;;;;;4986730;28;20062;-76
2021/04/19 09:25:53;;;;;;;3.75;3.40;;;16.80;91.20;;;;;;4995243;28;20041;-76
2021/04/19 09:28:40;;;;;;;5.20;3.70;;;16.90;90.90;;;;;;4989469;28;20092;-75
2021/04/19 09:31:09;;;;;;;1.92;1.70;;;16.90;90.30;;;;;;5013029;28;20387;-76
2021/04/19 09:33:35;;;;;;;2.50;2.20;;;17.10;91.10;;;;;;5006213;28;20037;-76
2021/04/19 09:36:00;;;;;;;2.20;1.95;;;17.20;90.00;;;;;;5002357;28;20030;-76
2021/04/19 09:38:26;;;;;;;2.33;2.13;;;17.40;90.20;;;;;;4974910;28;20045;-77
2021/04/19 09:41:04;;;;;;;2.55;2.33;;;17.30;84.80;;;;;;5013188;28;20037;-77
2021/04/19 09:43:33;;;;;;;2.53;2.33;;;17.40;90.20;;;;;;4986005;28;20038;-76
2021/04/19 09:46:17;;;;;;;2.40;2.20;;;17.60;88.80;;;;;;5008559;28;20052;-76
2021/04/19 09:48:52;;;;;;;3.33;2.70;;;17.70;88.90;;;;;;5006270;28;20083;-76
2021/04/19 09:51:29;;;;;;;2.25;2.05;;;17.80;86.10;;;;;;5007597;28;20057;-76
2021/04/19 09:54:00;;;;;;;3.22;3.00;;;17.80;89.10;;;;;;5008694;28;20112;-76
2021/04/19 09:56:27;;;;;;;2.95;2.63;;;18.00;88.50;;;;;;5009430;28;20030;-77
2021/04/19 09:58:53;;;;;;;2.85;2.65;;;17.90;87.50;;;;;;5003353;28;20121;-76
2021/04/19 10:01:20;;;;;;;3.67;2.42;;;17.90;86.80;;;;;;5007337;28;20121;-76
2021/04/19 10:03:50;;;;;;;2.17;1.98;;;18.00;86.30;;;;;;4977537;28;20037;-77
2021/04/19 10:06:44;;;;;;;2.88;2.42;;;18.00;85.20;;;;;;4988175;28;20461;-76
2021/04/19 10:09:22;;;;;;;2.60;2.30;;;17.80;84.40;;;;;;4996994;28;20030;-76
2021/04/19 10:11:49;;;;;;;2.63;2.42;;;17.80;83.10;;;;;;5006595;28;20041;-76
2021/04/19 10:14:15;;;;;;;3.50;2.65;;;17.90;85.80;;;;;;4988206;28;20033;-76
2021/04/19 10:16:48;;;;;;;2.10;1.83;;;17.90;83.80;;;;;;5006517;28;20037;-76
2021/04/19 10:19:23;;;;;;;1.98;1.83;;;17.80;81.80;;;;;;5005555;28;20054;-76
2021/04/19 10:22:03;;;;;;;2.03;1.92;;;17.90;81.60;;;;;;5005699;28;20121;-75
2021/04/19 10:24:29;;;;;;;3.35;2.28;;;18.10;79.90;;;;;;5004698;28;20116;-76
2021/04/19 10:26:55;;;;;;;2.15;1.95;;;18.20;78.50;;;;;;5006789;28;20116;-76
2021/04/19 10:29:21;;;;;;;3.08;2.08;;;18.30;78.70;;;;;;4975162;28;20041;-77
2021/04/19 10:31:47;;;;;;;4.00;2.50;;;18.30;77.90;;;;;;4987798;28;20037;-76
2021/04/19 10:34:13;;;;;;;2.38;1.88;;;18.60;83.00;;;;;;4992668;28;20511;-77
2021/04/19 10:37:01;;;;;;;3.10;2.80;;;18.60;76.90;;;;;;4994076;28;20049;-77
2021/04/19 10:39:28;;;;;;;2.38;2.17;;;18.70;82.00;;;;;;4991027;28;20030;-77
2021/04/19 10:41:57;;;;;;;3.08;2.78;;;19.00;81.10;;;;;;4990542;28;20057;-77
2021/04/19 10:44:37;;;;;;;4.13;2.67;;;19.20;82.80;;;;;;4977527;28;20034;-77
2021/04/19 10:47:06;;;;;;;3.33;3.03;;;19.20;81.50;;;;;;4984104;28;20034;-77
2021/04/19 10:49:32;;;;;;;3.13;2.67;;;19.40;81.00;;;;;;4988169;28;20046;-76
2021/04/19 10:51:59;;;;;;;2.10;1.92;;;19.30;80.20;;;;;;4971015;28;20650;-76
2021/04/19 10:54:29;;;;;;;3.80;2.70;;;19.30;79.10;;;;;;4979491;28;20030;-76
2021/04/19 10:56:55;;;;;;;3.35;2.47;;;19.50;78.50;;;;;;4983440;28;20096;-76
2021/04/19 10:59:23;;;;;;;3.95;2.92;;;20.00;74.80;;;;;;4966174;28;20430;-77
2021/04/19 11:01:56;;;;;;;3.08;2.72;;;20.00;78.00;;;;;;4990640;28;20249;-77
2021/04/19 11:04:22;;;;;;;2.75;2.42;;;19.80;76.40;;;;;;4981850;28;20121;-76
2021/04/19 11:06:47;;;;;;;2.60;2.40;;;20.10;74.60;;;;;;4988302;28;20569;-77
2021/04/19 11:09:18;;;;;;;3.30;3.00;;;19.90;78.20;;;;;;5003706;28;20037;-77
2021/04/19 11:11:44;;;;;;;3.20;2.90;;;19.70;78.00;;;;;;4987580;28;20040;-76
2021/04/19 11:14:17;;;;;;;3.03;2.72;;;19.70;77.90;;;;;;4989997;28;20040;-77
2021/04/19 11:17:05;;;;;;;5.35;3.70;;;19.50;76.20;;;;;;5004272;28;20052;-76
2021/04/19 11:19:41;;;;;;;3.85;3.35;;;19.40;75.30;;;;;;5001247;28;20031;-76
2021/04/19 11:22:20;;;;;;;2.53;2.33;;;19.40;77.10;;;;;;4968489;28;20149;-76
2021/04/19 11:24:46;;;;;;;2.70;2.50;;;19.30;75.80;;;;;;4985941;28;20041;-76
2021/04/19 11:27:11;;;;;;;4.32;3.25;;;19.30;75.30;;;;;;4986935;28;20026;-76
2021/04/19 11:29:43;;;;;;;3.08;2.72;;;19.40;76.20;;;;;;4973404;28;20048;-76
2021/04/19 11:32:10;;;;;;;3.95;3.42;;;19.40;74.80;;;;;;4970635;28;20084;-76
2021/04/19 11:34:39;;;;;;;3.25;2.95;;;19.40;73.80;;;;;;4989773;28;20488;-76
2021/04/19 11:37:06;;;;;;;3.45;2.88;;;19.40;73.50;;;;;;4985351;28;20054;-76
2021/04/19 11:39:38;;;;;;;3.63;2.80;;;19.50;73.60;;;;;;4988777;28;20053;-76
2021/04/19 11:42:26;;;;;;;3.28;2.97;;;19.40;73.50;;;;;;4988247;28;20445;-76
2021/04/19 11:44:52;;;;;;;3.60;3.20;;;19.50;75.90;;;;;;4972862;28;20196;-77
2021/04/19 11:47:18;;;;;;;3.00;2.72;;;19.40;75.10;;;;;;5005014;28;20026;-76
2021/04/19 11:49:44;;;;;;;4.68;3.15;;;19.40;75.70;;;;;;4990607;28;20060;-76
2021/04/19 11:52:10;;;;;;;4.13;2.83;;;19.40;76.00;;;;;;4984549;28;20467;-76
2021/04/19 11:54:36;;;;;;;4.43;3.20;;;19.30;75.60;;;;;;4988635;28;20030;-76
2021/04/19 11:57:02;;;;;;;6.05;3.08;;;19.30;74.40;;;;;;4982581;28;20070;-76
2021/04/19 11:59:27;;;;;;;5.85;3.50;;;19.20;73.20;;;;;;4968053;28;20030;-76
2021/04/19 12:01:53;;;;;;;7.00;5.35;;;19.10;74.30;;;;;;5005735;28;20040;-76
2021/04/19 12:04:18;;;;;;;6.05;5.38;;;18.90;74.30;;;;;;5005621;28;20040;-76
2021/04/19 12:06:44;;;;;;;6.53;5.85;;;18.80;74.40;;;;;;5000553;28;20506;-76
2021/04/19 12:09:09;;;;;;;7.30;6.25;;;18.60;75.20;;;;;;5004108;28;20053;-76
2021/04/19 12:11:35;;;;;;;8.15;7.05;;;18.50;75.30;;;;;;4984120;28;20038;-77
2021/04/19 12:14:01;;;;;;;9.15;7.18;;;18.30;75.80;;;;;;5009102;28;20025;-75
2021/04/19 12:16:28;;;;;;;7.55;6.40;;;18.20;76.40;;;;;;4986324;28;20498;-75
2021/04/19 12:18:53;;;;;;;7.78;6.97;;;18.00;76.60;;;;;;5003145;28;20037;-76
2021/04/19 12:21:19;;;;;;;9.18;6.85;;;18.00;76.90;;;;;;4990916;28;20036;-76
2021/04/19 12:23:44;;;;;;;7.82;6.60;;;17.80;77.20;;;;;;5004465;28;20073;-76
2021/04/19 12:26:10;;;;;;;7.78;6.85;;;17.80;77.40;;;;;;5005266;28;20061;-75
2021/04/19 12:28:35;;;;;;;7.78;6.45;;;17.80;77.60;;;;;;5010082;28;20088;-76
2021/04/19 12:31:01;;;;;;;7.97;6.82;;;17.80;77.70;;;;;;5011263;28;20046;-76
2021/04/19 12:33:27;;;;;;;8.63;6.70;;;17.80;77.90;;;;;;5005088;28;20161;-75
2021/04/19 12:35:52;;;;;;;7.55;6.72;;;17.90;77.90;;;;;;5005188;28;20033;-76
2021/04/19 12:38:18;;;;;;;9.35;7.22;;;18.10;78.10;;;;;;4971491;28;20113;-76
2021/04/19 12:40:43;;;;;;;9.13;7.05;;;18.20;77.90;;;;;;4986219;28;20026;-75
2021/04/19 12:43:10;;;;;;;8.20;6.43;;;18.40;77.00;;;;;;5004351;28;20030;-76
2021/04/19 12:45:36;;;;;;;10.20;7.18;;;18.50;76.60;;;;;;4990941;28;20030;-75